sensor_id;sensor_type;location;lat;lon;timestamp;temperature;humidity
41310;DHT22;27057;51.438;-0.010;2024-01-07T00:02:01;4.90;99.90
41310;DHT22;27057;51.438;-0.010;2024-01-07T00:04:28;4.90;99.90
41310;DHT22;27057;51.438;-0.010;2024-01-07T00:06:56;4.90;99.90
41310;DHT22;27057;51.438;-0.010;2024-01-07T00:09:23;5.00;99.90
41310;DHT22;27057;51.438;-0.010;2024-01-07T00:11:51;5.00;99.90
41310;DHT22;27057;51.438;-0.010;2024-01-07T00:14:18;5.00;99.90
41310;DHT22;27057;51.438;-0.010;2024-01-07T00:16:46;5.00;99.90
41310;DHT22;27057;51.438;-0.010;2024-01-07T00:19:13;5.00;99.90
41310;DHT22;27057;51.438;-0.010;2024-01-07T00:21:41;5.00;99.90
41310;DHT22;27057;51.438;-0.010;2024-01-07T00:24:08;4.90;99.90
41310;DHT22;27057;51.438;-0.010;2024-01-07T00:26:37;4.80;99.90
41310;DHT22;27057;51.438;-0.010;2024-01-07T00:29:05;4.80;99.90
41310;DHT22;27057;51.438;-0.010;2024-01-07T00:31:32;4.80;99.90
41310;DHT22;27057;51.438;-0.010;2024-01-07T00:34:00;4.80;99.90
41310;DHT22;27057;51.438;-0.010;2024-01-07T00:36:28;4.80;99.90
41310;DHT22;27057;51.438;-0.010;2024-01-07T00:38:55;4.70;99.90
41310;DHT22;27057;51.438;-0.010;2024-01-07T00:41:23;4.70;99.90
41310;DHT22;27057;51.438;-0.010;2024-01-07T00:43:51;4.60;99.90
41310;DHT22;27057;51.438;-0.010;2024-01-07T00:46:20;4.50;99.90
41310;DHT22;27057;51.438;-0.010;2024-01-07T00:48:47;4.50;99.90
41310;DHT22;27057;51.438;-0.010;2024-01-07T00:51:15;4.40;99.90
41310;DHT22;27057;51.438;-0.010;2024-01-07T00:53:42;4.40;99.90
41310;DHT22;27057;51.438;-0.010;2024-01-07T00:56:11;4.40;99.90
41310;DHT22;27057;51.438;-0.010;2024-01-07T00:58:38;4.30;99.90
41310;DHT22;27057;51.438;-0.010;2024-01-07T01:01:06;4.30;99.90
41310;DHT22;27057;51.438;-0.010;2024-01-07T01:03:33;4.20;99.90
41310;DHT22;27057;51.438;-0.010;2024-01-07T01:06:01;4.20;99.90
41310;DHT22;27057;51.438;-0.010;2024-01-07T01:08:30;4.20;99.90
41310;DHT22;27057;51.438;-0.010;2024-01-07T01:10:57;4.20;99.90
41310;DHT22;27057;51.438;-0.010;2024-01-07T01:13:25;4.20;99.90
41310;DHT22;27057;51.438;-0.010;2024-01-07T01:15:52;4.10;99.90
41310;DHT22;27057;51.438;-0.010;2024-01-07T01:18:20;4.10;99.90
41310;DHT22;27057;51.438;-0.010;2024-01-07T01:20:47;4.10;99.90
41310;DHT22;27057;51.438;-0.010;2024-01-07T01:23:15;4.10;99.90
41310;DHT22;27057;51.438;-0.010;2024-01-07T01:25:42;4.00;99.90
41310;DHT22;27057;51.438;-0.010;2024-01-07T01:28:10;4.00;99.90
41310;DHT22;27057;51.438;-0.010;2024-01-07T01:30:37;3.90;99.90
41310;DHT22;27057;51.438;-0.010;2024-01-07T01:33:05;3.90;99.90
41310;DHT22;27057;51.438;-0.010;2024-01-07T01:35:32;3.90;99.90
41310;DHT22;27057;51.438;-0.010;2024-01-07T01:38:00;3.90;99.90
41310;DHT22;27057;51.438;-0.010;2024-01-07T01:40:27;3.90;99.90
41310;DHT22;27057;51.438;-0.010;2024-01-07T01:42:55;3.80;99.90
41310;DHT22;27057;51.438;-0.010;2024-01-07T01:45:22;3.80;99.90
41310;DHT22;27057;51.438;-0.010;2024-01-07T01:47:50;3.80;99.90
41310;DHT22;27057;51.438;-0.010;2024-01-07T01:50:18;3.80;99.90
41310;DHT22;27057;51.438;-0.010;2024-01-07T01:52:45;3.70;99.90
41310;DHT22;27057;51.438;-0.010;2024-01-07T01:55:13;3.80;99.90
41310;DHT22;27057;51.438;-0.010;2024-01-07T01:57:41;3.80;99.90
41310;DHT22;27057;51.438;-0.010;2024-01-07T02:00:11;3.80;99.90
41310;DHT22;27057;51.438;-0.010;2024-01-07T02:02:38;3.70;99.90
41310;DHT22;27057;51.438;-0.010;2024-01-07T02:05:06;3.70;99.90
41310;DHT22;27057;51.438;-0.010;2024-01-07T02:07:33;3.80;99.90
41310;DHT22;27057;51.438;-0.010;2024-01-07T02:10:02;3.70;99.90
41310;DHT22;27057;51.438;-0.010;2024-01-07T02:12:30;3.70;99.90
41310;DHT22;27057;51.438;-0.010;2024-01-07T02:14:59;3.70;99.90
41310;DHT22;27057;51.438;-0.010;2024-01-07T02:17:27;3.70;99.90
41310;DHT22;27057;51.438;-0.010;2024-01-07T02:19:55;3.70;99.90
41310;DHT22;27057;51.438;-0.010;2024-01-07T02:22:23;3.70;99.90
41310;DHT22;27057;51.438;-0.010;2024-01-07T02:24:51;3.70;99.90
41310;DHT22;27057;51.438;-0.010;2024-01-07T02:27:18;3.70;99.90
41310;DHT22;27057;51.438;-0.010;2024-01-07T02:29:46;3.70;99.90
41310;DHT22;27057;51.438;-0.010;2024-01-07T02:32:13;3.70;99.90
41310;DHT22;27057;51.438;-0.010;2024-01-07T02:34:40;3.60;99.90
41310;DHT22;27057;51.438;-0.010;2024-01-07T02:37:08;3.60;99.90
41310;DHT22;27057;51.438;-0.010;2024-01-07T02:39:37;3.60;99.90
41310;DHT22;27057;51.438;-0.010;2024-01-07T02:42:05;3.60;99.90
41310;DHT22;27057;51.438;-0.010;2024-01-07T02:44:32;3.60;99.90
41310;DHT22;27057;51.438;-0.010;2024-01-07T02:47:00;3.60;99.90
41310;DHT22;27057;51.438;-0.010;2024-01-07T02:49:28;3.60;99.90
41310;DHT22;27057;51.438;-0.010;2024-01-07T02:51:56;3.50;99.90
41310;DHT22;27057;51.438;-0.010;2024-01-07T02:54:25;3.50;99.90
41310;DHT22;27057;51.438;-0.010;2024-01-07T02:56:52;3.50;99.90
41310;DHT22;27057;51.438;-0.010;2024-01-07T02:59:20;3.50;99.90
41310;DHT22;27057;51.438;-0.010;2024-01-07T03:01:47;3.50;99.90
41310;DHT22;27057;51.438;-0.010;2024-01-07T03:04:16;3.50;99.90
41310;DHT22;27057;51.438;-0.010;2024-01-07T03:06:44;3.50;99.90
41310;DHT22;27057;51.438;-0.010;2024-01-07T03:09:11;3.40;99.90
41310;DHT22;27057;51.438;-0.010;2024-01-07T03:11:41;3.40;99.90
41310;DHT22;27057;51.438;-0.010;2024-01-07T03:14:10;3.40;99.90
41310;DHT22;27057;51.438;-0.010;2024-01-07T03:16:37;3.30;99.90
41310;DHT22;27057;51.438;-0.010;2024-01-07T03:19:04;3.30;99.90
41310;DHT22;27057;51.438;-0.010;2024-01-07T03:21:32;3.30;99.90
41310;DHT22;27057;51.438;-0.010;2024-01-07T03:23:59;3.30;99.90
41310;DHT22;27057;51.438;-0.010;2024-01-07T03:26:29;3.30;99.90
41310;DHT22;27057;51.438;-0.010;2024-01-07T03:28:57;3.30;99.90
41310;DHT22;27057;51.438;-0.010;2024-01-07T03:31:27;3.20;99.90
41310;DHT22;27057;51.438;-0.010;2024-01-07T03:33:55;3.20;99.90
41310;DHT22;27057;51.438;-0.010;2024-01-07T03:36:23;3.20;99.90
41310;DHT22;27057;51.438;-0.010;2024-01-07T03:38:50;3.10;99.90
41310;DHT22;27057;51.438;-0.010;2024-01-07T03:41:18;3.20;99.90
41310;DHT22;27057;51.438;-0.010;2024-01-07T03:43:47;3.10;99.90
41310;DHT22;27057;51.438;-0.010;2024-01-07T03:46:16;3.10;99.90
41310;DHT22;27057;51.438;-0.010;2024-01-07T03:48:44;3.10;99.90
41310;DHT22;27057;51.438;-0.010;2024-01-07T03:51:12;3.20;99.90
41310;DHT22;27057;51.438;-0.010;2024-01-07T03:53:39;3.20;99.90
41310;DHT22;27057;51.438;-0.010;2024-01-07T03:56:06;3.10;99.90
41310;DHT22;27057;51.438;-0.010;2024-01-07T03:58:34;3.10;99.90
41310;DHT22;27057;51.438;-0.010;2024-01-07T04:01:02;3.10;99.90
41310;DHT22;27057;51.438;-0.010;2024-01-07T04:03:29;3.10;99.90
41310;DHT22;27057;51.438;-0.010;2024-01-07T04:05:57;3.10;99.90
41310;DHT22;27057;51.438;-0.010;2024-01-07T04:08:24;3.10;99.90
41310;DHT22;27057;51.438;-0.010;2024-01-07T04:10:52;3.10;99.90
41310;DHT22;27057;51.438;-0.010;2024-01-07T04:13:19;3.10;99.90
41310;DHT22;27057;51.438;-0.010;2024-01-07T04:15:47;3.00;99.90
41310;DHT22;27057;51.438;-0.010;2024-01-07T04:18:14;3.10;99.90
41310;DHT22;27057;51.438;-0.010;2024-01-07T04:20:42;3.10;99.90
41310;DHT22;27057;51.438;-0.010;2024-01-07T04:23:09;3.10;99.90
41310;DHT22;27057;51.438;-0.010;2024-01-07T04:25:37;3.10;99.90
41310;DHT22;27057;51.438;-0.010;2024-01-07T04:28:05;3.10;99.90
41310;DHT22;27057;51.438;-0.010;2024-01-07T04:30:33;3.10;99.90
41310;DHT22;27057;51.438;-0.010;2024-01-07T04:33:00;3.20;99.90
41310;DHT22;27057;51.438;-0.010;2024-01-07T04:35:28;3.10;99.90
41310;DHT22;27057;51.438;-0.010;2024-01-07T04:37:55;3.10;99.90
41310;DHT22;27057;51.438;-0.010;2024-01-07T04:40:22;3.20;99.90
41310;DHT22;27057;51.438;-0.010;2024-01-07T04:42:50;3.20;99.90
41310;DHT22;27057;51.438;-0.010;2024-01-07T04:45:17;3.10;99.90
41310;DHT22;27057;51.438;-0.010;2024-01-07T04:47:44;3.10;99.90
41310;DHT22;27057;51.438;-0.010;2024-01-07T04:50:12;3.10;99.90
41310;DHT22;27057;51.438;-0.010;2024-01-07T04:52:42;3.10;99.90
41310;DHT22;27057;51.438;-0.010;2024-01-07T04:55:09;3.10;99.90
41310;DHT22;27057;51.438;-0.010;2024-01-07T04:57:37;3.10;99.90
41310;DHT22;27057;51.438;-0.010;2024-01-07T05:00:05;3.10;99.90
41310;DHT22;27057;51.438;-0.010;2024-01-07T05:02:32;3.00;99.90
41310;DHT22;27057;51.438;-0.010;2024-01-07T05:04:59;3.00;99.90
41310;DHT22;27057;51.438;-0.010;2024-01-07T05:07:27;3.10;99.90
41310;DHT22;27057;51.438;-0.010;2024-01-07T05:09:54;3.10;99.90
41310;DHT22;27057;51.438;-0.010;2024-01-07T05:12:22;3.10;99.90
41310;DHT22;27057;51.438;-0.010;2024-01-07T05:14:52;3.10;99.90
41310;DHT22;27057;51.438;-0.010;2024-01-07T05:17:19;3.10;99.90
41310;DHT22;27057;51.438;-0.010;2024-01-07T05:19:47;3.00;99.90
41310;DHT22;27057;51.438;-0.010;2024-01-07T05:22:15;3.00;99.90
41310;DHT22;27057;51.438;-0.010;2024-01-07T05:24:43;3.10;99.90
41310;DHT22;27057;51.438;-0.010;2024-01-07T05:27:10;3.10;99.90
41310;DHT22;27057;51.438;-0.010;2024-01-07T05:29:38;3.20;99.90
41310;DHT22;27057;51.438;-0.010;2024-01-07T05:32:06;3.30;99.90
41310;DHT22;27057;51.438;-0.010;2024-01-07T05:34:33;3.30;99.90
41310;DHT22;27057;51.438;-0.010;2024-01-07T05:37:01;3.30;99.90
41310;DHT22;27057;51.438;-0.010;2024-01-07T05:39:28;3.30;99.90
41310;DHT22;27057;51.438;-0.010;2024-01-07T05:41:56;3.40;99.90
41310;DHT22;27057;51.438;-0.010;2024-01-07T05:44:23;3.40;99.90
41310;DHT22;27057;51.438;-0.010;2024-01-07T05:46:53;3.40;99.90
41310;DHT22;27057;51.438;-0.010;2024-01-07T05:49:21;3.30;99.90
41310;DHT22;27057;51.438;-0.010;2024-01-07T05:51:49;3.30;99.90
41310;DHT22;27057;51.438;-0.010;2024-01-07T05:54:16;3.30;99.90
41310;DHT22;27057;51.438;-0.010;2024-01-07T05:56:44;3.30;99.90
41310;DHT22;27057;51.438;-0.010;2024-01-07T05:59:11;3.30;99.90
41310;DHT22;27057;51.438;-0.010;2024-01-07T06:01:40;3.30;99.90
41310;DHT22;27057;51.438;-0.010;2024-01-07T06:04:07;3.20;99.90
41310;DHT22;27057;51.438;-0.010;2024-01-07T06:06:35;3.20;99.90
41310;DHT22;27057;51.438;-0.010;2024-01-07T06:09:02;3.10;99.90
41310;DHT22;27057;51.438;-0.010;2024-01-07T06:11:30;3.10;99.90
41310;DHT22;27057;51.438;-0.010;2024-01-07T06:13:58;3.10;99.90
41310;DHT22;27057;51.438;-0.010;2024-01-07T06:16:25;3.10;99.90
41310;DHT22;27057;51.438;-0.010;2024-01-07T06:18:52;3.10;99.90
41310;DHT22;27057;51.438;-0.010;2024-01-07T06:21:20;2.90;99.90
41310;DHT22;27057;51.438;-0.010;2024-01-07T06:23:47;3.10;99.90
41310;DHT22;27057;51.438;-0.010;2024-01-07T06:26:15;2.90;99.90
41310;DHT22;27057;51.438;-0.010;2024-01-07T06:28:43;2.70;99.90
41310;DHT22;27057;51.438;-0.010;2024-01-07T06:31:10;3.00;99.90
41310;DHT22;27057;51.438;-0.010;2024-01-07T06:33:38;2.90;99.90
41310;DHT22;27057;51.438;-0.010;2024-01-07T06:36:08;3.10;99.90
41310;DHT22;27057;51.438;-0.010;2024-01-07T06:38:35;2.90;99.90
41310;DHT22;27057;51.438;-0.010;2024-01-07T06:41:03;2.90;99.90
41310;DHT22;27057;51.438;-0.010;2024-01-07T06:43:32;2.90;99.90
41310;DHT22;27057;51.438;-0.010;2024-01-07T06:45:59;2.90;99.90
41310;DHT22;27057;51.438;-0.010;2024-01-07T06:48:27;2.80;99.90
41310;DHT22;27057;51.438;-0.010;2024-01-07T06:50:54;3.90;99.90
41310;DHT22;27057;51.438;-0.010;2024-01-07T06:53:22;2.80;99.90
41310;DHT22;27057;51.438;-0.010;2024-01-07T06:55:49;2.80;99.90
41310;DHT22;27057;51.438;-0.010;2024-01-07T06:58:17;2.70;99.90
41310;DHT22;27057;51.438;-0.010;2024-01-07T07:00:44;2.70;99.90
41310;DHT22;27057;51.438;-0.010;2024-01-07T07:03:12;2.70;99.90
41310;DHT22;27057;51.438;-0.010;2024-01-07T07:05:40;2.70;99.90
41310;DHT22;27057;51.438;-0.010;2024-01-07T07:08:07;2.60;99.90
41310;DHT22;27057;51.438;-0.010;2024-01-07T07:10:34;2.50;99.90
41310;DHT22;27057;51.438;-0.010;2024-01-07T07:13:02;2.70;99.90
41310;DHT22;27057;51.438;-0.010;2024-01-07T07:15:29;2.70;99.90
41310;DHT22;27057;51.438;-0.010;2024-01-07T07:17:57;2.60;99.90
41310;DHT22;27057;51.438;-0.010;2024-01-07T07:20:24;2.70;99.90
41310;DHT22;27057;51.438;-0.010;2024-01-07T07:22:52;2.80;99.90
41310;DHT22;27057;51.438;-0.010;2024-01-07T07:25:19;2.80;99.90
41310;DHT22;27057;51.438;-0.010;2024-01-07T07:27:47;2.80;99.90
41310;DHT22;27057;51.438;-0.010;2024-01-07T07:30:15;2.80;99.90
41310;DHT22;27057;51.438;-0.010;2024-01-07T07:32:43;2.80;99.90
41310;DHT22;27057;51.438;-0.010;2024-01-07T07:35:12;2.70;99.90
41310;DHT22;27057;51.438;-0.010;2024-01-07T07:37:39;2.70;99.90
41310;DHT22;27057;51.438;-0.010;2024-01-07T07:40:07;2.80;99.90
41310;DHT22;27057;51.438;-0.010;2024-01-07T07:42:34;2.70;99.90
41310;DHT22;27057;51.438;-0.010;2024-01-07T07:45:02;2.70;99.90
41310;DHT22;27057;51.438;-0.010;2024-01-07T07:47:31;2.70;99.90
41310;DHT22;27057;51.438;-0.010;2024-01-07T07:49:58;2.40;99.90
41310;DHT22;27057;51.438;-0.010;2024-01-07T07:52:27;2.70;99.90
41310;DHT22;27057;51.438;-0.010;2024-01-07T07:54:54;2.70;99.90
41310;DHT22;27057;51.438;-0.010;2024-01-07T07:57:21;2.70;99.90
41310;DHT22;27057;51.438;-0.010;2024-01-07T07:59:49;2.60;99.90
41310;DHT22;27057;51.438;-0.010;2024-01-07T08:02:17;2.60;99.90
41310;DHT22;27057;51.438;-0.010;2024-01-07T08:04:44;2.60;99.90
41310;DHT22;27057;51.438;-0.010;2024-01-07T08:07:12;2.60;99.90
41310;DHT22;27057;51.438;-0.010;2024-01-07T08:09:39;2.60;99.90
41310;DHT22;27057;51.438;-0.010;2024-01-07T08:12:07;2.60;99.90
41310;DHT22;27057;51.438;-0.010;2024-01-07T08:14:35;2.60;99.90
41310;DHT22;27057;51.438;-0.010;2024-01-07T08:17:03;2.60;99.90
41310;DHT22;27057;51.438;-0.010;2024-01-07T08:19:31;2.60;99.90
41310;DHT22;27057;51.438;-0.010;2024-01-07T08:21:59;2.60;99.90
41310;DHT22;27057;51.438;-0.010;2024-01-07T08:24:27;2.50;99.90
41310;DHT22;27057;51.438;-0.010;2024-01-07T08:26:54;2.60;99.90
41310;DHT22;27057;51.438;-0.010;2024-01-07T08:29:22;2.50;99.90
41310;DHT22;27057;51.438;-0.010;2024-01-07T08:31:49;2.50;99.90
41310;DHT22;27057;51.438;-0.010;2024-01-07T08:34:17;2.60;99.90
41310;DHT22;27057;51.438;-0.010;2024-01-07T08:36:45;2.30;99.90
41310;DHT22;27057;51.438;-0.010;2024-01-07T08:39:15;2.20;99.90
41310;DHT22;27057;51.438;-0.010;2024-01-07T08:41:42;3.00;99.90
41310;DHT22;27057;51.438;-0.010;2024-01-07T08:44:11;3.10;99.90
41310;DHT22;27057;51.438;-0.010;2024-01-07T08:46:38;2.40;99.90
41310;DHT22;27057;51.438;-0.010;2024-01-07T08:49:06;2.70;99.90
41310;DHT22;27057;51.438;-0.010;2024-01-07T08:51:34;2.60;99.90
41310;DHT22;27057;51.438;-0.010;2024-01-07T08:54:01;2.60;99.90
41310;DHT22;27057;51.438;-0.010;2024-01-07T08:56:29;2.60;99.90
41310;DHT22;27057;51.438;-0.010;2024-01-07T09:01:26;2.70;99.90
41310;DHT22;27057;51.438;-0.010;2024-01-07T09:03:53;2.60;99.90
41310;DHT22;27057;51.438;-0.010;2024-01-07T09:06:21;2.70;99.90
41310;DHT22;27057;51.438;-0.010;2024-01-07T09:08:48;2.80;99.90
41310;DHT22;27057;51.438;-0.010;2024-01-07T09:11:19;2.80;99.90
41310;DHT22;27057;51.438;-0.010;2024-01-07T09:13:46;2.80;99.90
41310;DHT22;27057;51.438;-0.010;2024-01-07T09:16:16;2.90;99.90
41310;DHT22;27057;51.438;-0.010;2024-01-07T09:18:43;2.90;99.90
41310;DHT22;27057;51.438;-0.010;2024-01-07T09:21:12;2.90;99.90
41310;DHT22;27057;51.438;-0.010;2024-01-07T09:23:39;2.90;99.90
41310;DHT22;27057;51.438;-0.010;2024-01-07T09:26:07;2.90;99.90
41310;DHT22;27057;51.438;-0.010;2024-01-07T09:28:34;2.60;99.90
41310;DHT22;27057;51.438;-0.010;2024-01-07T09:31:01;3.50;99.90
41310;DHT22;27057;51.438;-0.010;2024-01-07T09:33:29;3.00;99.90
41310;DHT22;27057;51.438;-0.010;2024-01-07T09:35:57;2.90;99.90
41310;DHT22;27057;51.438;-0.010;2024-01-07T09:38:37;3.10;99.90
41310;DHT22;27057;51.438;-0.010;2024-01-07T09:41:04;3.10;99.90
41310;DHT22;27057;51.438;-0.010;2024-01-07T09:43:32;3.00;99.90
41310;DHT22;27057;51.438;-0.010;2024-01-07T09:46:03;3.10;99.90
41310;DHT22;27057;51.438;-0.010;2024-01-07T09:48:30;3.20;99.90
41310;DHT22;27057;51.438;-0.010;2024-01-07T09:51:01;3.20;99.90
41310;DHT22;27057;51.438;-0.010;2024-01-07T09:53:31;3.20;99.90
41310;DHT22;27057;51.438;-0.010;2024-01-07T09:56:01;3.20;99.90
41310;DHT22;27057;51.438;-0.010;2024-01-07T09:58:33;3.30;99.90
41310;DHT22;27057;51.438;-0.010;2024-01-07T10:01:01;3.20;99.90
41310;DHT22;27057;51.438;-0.010;2024-01-07T10:03:29;3.30;99.90
41310;DHT22;27057;51.438;-0.010;2024-01-07T10:05:57;3.40;99.90
41310;DHT22;27057;51.438;-0.010;2024-01-07T10:10:57;3.40;99.90
41310;DHT22;27057;51.438;-0.010;2024-01-07T10:13:25;3.40;99.90
41310;DHT22;27057;51.438;-0.010;2024-01-07T10:15:52;3.50;99.90
41310;DHT22;27057;51.438;-0.010;2024-01-07T10:18:20;4.70;99.90
41310;DHT22;27057;51.438;-0.010;2024-01-07T10:20:49;3.60;99.90
41310;DHT22;27057;51.438;-0.010;2024-01-07T10:23:20;3.50;99.90
41310;DHT22;27057;51.438;-0.010;2024-01-07T10:25:47;3.60;99.90
41310;DHT22;27057;51.438;-0.010;2024-01-07T10:28:15;3.60;99.90
41310;DHT22;27057;51.438;-0.010;2024-01-07T10:30:49;3.70;99.90
41310;DHT22;27057;51.438;-0.010;2024-01-07T10:33:18;3.80;99.90
41310;DHT22;27057;51.438;-0.010;2024-01-07T10:35:57;3.90;99.90
41310;DHT22;27057;51.438;-0.010;2024-01-07T10:38:28;3.90;99.90
41310;DHT22;27057;51.438;-0.010;2024-01-07T10:40:56;3.90;99.90
41310;DHT22;27057;51.438;-0.010;2024-01-07T10:43:29;4.00;99.90
41310;DHT22;27057;51.438;-0.010;2024-01-07T10:46:00;4.10;99.90
41310;DHT22;27057;51.438;-0.010;2024-01-07T10:48:31;4.10;99.90
41310;DHT22;27057;51.438;-0.010;2024-01-07T10:51:05;4.20;99.90
41310;DHT22;27057;51.438;-0.010;2024-01-07T10:53:34;4.20;99.90
41310;DHT22;27057;51.438;-0.010;2024-01-07T10:56:05;4.30;99.90
41310;DHT22;27057;51.438;-0.010;2024-01-07T10:58:36;4.30;99.90
41310;DHT22;27057;51.438;-0.010;2024-01-07T11:01:04;4.40;99.90
41310;DHT22;27057;51.438;-0.010;2024-01-07T11:03:40;4.40;99.90
41310;DHT22;27057;51.438;-0.010;2024-01-07T11:08:56;4.50;99.90
41310;DHT22;27057;51.438;-0.010;2024-01-07T11:11:27;4.60;99.90
41310;DHT22;27057;51.438;-0.010;2024-01-07T11:13:59;4.60;99.90
41310;DHT22;27057;51.438;-0.010;2024-01-07T11:16:42;4.60;99.90
41310;DHT22;27057;51.438;-0.010;2024-01-07T11:19:13;4.70;99.90
41310;DHT22;27057;51.438;-0.010;2024-01-07T11:21:42;4.70;99.90
41310;DHT22;27057;51.438;-0.010;2024-01-07T11:24:09;4.90;99.90
41310;DHT22;27057;51.438;-0.010;2024-01-07T11:26:36;4.90;99.90
41310;DHT22;27057;51.438;-0.010;2024-01-07T11:29:04;4.80;99.90
41310;DHT22;27057;51.438;-0.010;2024-01-07T11:34:07;5.20;99.90
41310;DHT22;27057;51.438;-0.010;2024-01-07T11:36:36;5.30;99.90
41310;DHT22;27057;51.438;-0.010;2024-01-07T11:39:04;5.40;99.90
41310;DHT22;27057;51.438;-0.010;2024-01-07T11:41:35;5.60;99.90
41310;DHT22;27057;51.438;-0.010;2024-01-07T11:44:04;5.60;99.90
41310;DHT22;27057;51.438;-0.010;2024-01-07T11:46:33;5.60;99.90
41310;DHT22;27057;51.438;-0.010;2024-01-07T11:49:02;5.50;99.90
41310;DHT22;27057;51.438;-0.010;2024-01-07T11:51:31;5.40;99.90
41310;DHT22;27057;51.438;-0.010;2024-01-07T11:54:02;5.30;99.90
41310;DHT22;27057;51.438;-0.010;2024-01-07T11:56:29;5.30;99.90
41310;DHT22;27057;51.438;-0.010;2024-01-07T11:58:57;5.20;99.90
41310;DHT22;27057;51.438;-0.010;2024-01-07T12:01:25;5.20;99.90
41310;DHT22;27057;51.438;-0.010;2024-01-07T12:03:56;5.10;99.90
41310;DHT22;27057;51.438;-0.010;2024-01-07T12:06:23;5.20;99.90
41310;DHT22;27057;51.438;-0.010;2024-01-07T12:08:52;5.20;99.90
41310;DHT22;27057;51.438;-0.010;2024-01-07T12:11:19;5.30;99.90
41310;DHT22;27057;51.438;-0.010;2024-01-07T12:13:48;5.30;99.90
41310;DHT22;27057;51.438;-0.010;2024-01-07T12:16:17;5.40;99.90
41310;DHT22;27057;51.438;-0.010;2024-01-07T12:18:46;5.40;99.90
41310;DHT22;27057;51.438;-0.010;2024-01-07T12:21:19;5.40;99.90
41310;DHT22;27057;51.438;-0.010;2024-01-07T12:23:50;5.40;99.90
41310;DHT22;27057;51.438;-0.010;2024-01-07T12:26:18;5.50;99.90
41310;DHT22;27057;51.438;-0.010;2024-01-07T12:28:55;5.50;99.90
41310;DHT22;27057;51.438;-0.010;2024-01-07T12:31:32;5.00;99.90
41310;DHT22;27057;51.438;-0.010;2024-01-07T12:34:01;5.60;99.90
41310;DHT22;27057;51.438;-0.010;2024-01-07T12:36:30;5.60;99.90
41310;DHT22;27057;51.438;-0.010;2024-01-07T12:39:01;5.60;99.90
41310;DHT22;27057;51.438;-0.010;2024-01-07T12:41:29;5.60;99.90
41310;DHT22;27057;51.438;-0.010;2024-01-07T12:43:56;5.70;99.90
41310;DHT22;27057;51.438;-0.010;2024-01-07T12:46:24;5.60;99.90
41310;DHT22;27057;51.438;-0.010;2024-01-07T12:48:51;5.60;99.90
41310;DHT22;27057;51.438;-0.010;2024-01-07T12:51:19;5.60;99.90
41310;DHT22;27057;51.438;-0.010;2024-01-07T12:53:50;5.60;99.90
41310;DHT22;27057;51.438;-0.010;2024-01-07T12:56:18;5.70;99.90
41310;DHT22;27057;51.438;-0.010;2024-01-07T12:58:45;5.70;99.90
41310;DHT22;27057;51.438;-0.010;2024-01-07T13:01:12;5.70;99.90
41310;DHT22;27057;51.438;-0.010;2024-01-07T13:03:41;5.70;99.90
41310;DHT22;27057;51.438;-0.010;2024-01-07T13:06:08;5.80;99.90
41310;DHT22;27057;51.438;-0.010;2024-01-07T13:08:36;5.70;99.90
41310;DHT22;27057;51.438;-0.010;2024-01-07T13:11:04;5.70;99.90
41310;DHT22;27057;51.438;-0.010;2024-01-07T13:16:01;5.80;99.90
41310;DHT22;27057;51.438;-0.010;2024-01-07T13:18:29;5.80;99.90
41310;DHT22;27057;51.438;-0.010;2024-01-07T13:20:57;5.80;99.90
41310;DHT22;27057;51.438;-0.010;2024-01-07T13:23:24;5.90;99.90
41310;DHT22;27057;51.438;-0.010;2024-01-07T13:25:53;5.80;99.90
41310;DHT22;27057;51.438;-0.010;2024-01-07T13:28:21;6.40;99.90
41310;DHT22;27057;51.438;-0.010;2024-01-07T13:30:48;5.80;99.90
41310;DHT22;27057;51.438;-0.010;2024-01-07T13:33:17;5.80;99.90
41310;DHT22;27057;51.438;-0.010;2024-01-07T13:38:12;5.80;99.90
41310;DHT22;27057;51.438;-0.010;2024-01-07T13:40:40;5.80;99.90
41310;DHT22;27057;51.438;-0.010;2024-01-07T13:43:07;5.70;99.90
41310;DHT22;27057;51.438;-0.010;2024-01-07T13:45:35;5.70;99.90
41310;DHT22;27057;51.438;-0.010;2024-01-07T13:48:03;6.00;99.90
41310;DHT22;27057;51.438;-0.010;2024-01-07T13:50:30;5.60;99.90
41310;DHT22;27057;51.438;-0.010;2024-01-07T13:55:26;5.70;99.90
41310;DHT22;27057;51.438;-0.010;2024-01-07T13:57:54;6.30;99.90
41310;DHT22;27057;51.438;-0.010;2024-01-07T14:02:49;5.70;99.90
41310;DHT22;27057;51.438;-0.010;2024-01-07T14:05:16;5.70;99.90
41310;DHT22;27057;51.438;-0.010;2024-01-07T14:07:47;6.00;99.90
41310;DHT22;27057;51.438;-0.010;2024-01-07T14:10:15;5.70;99.90
41310;DHT22;27057;51.438;-0.010;2024-01-07T14:12:45;5.70;99.90
41310;DHT22;27057;51.438;-0.010;2024-01-07T14:15:14;5.60;99.90
41310;DHT22;27057;51.438;-0.010;2024-01-07T14:17:42;5.70;99.90
41310;DHT22;27057;51.438;-0.010;2024-01-07T14:20:10;5.70;99.90
41310;DHT22;27057;51.438;-0.010;2024-01-07T14:22:38;5.70;99.90
41310;DHT22;27057;51.438;-0.010;2024-01-07T14:25:06;5.50;99.90
41310;DHT22;27057;51.438;-0.010;2024-01-07T14:27:34;5.60;99.90
41310;DHT22;27057;51.438;-0.010;2024-01-07T14:30:01;5.50;99.90
41310;DHT22;27057;51.438;-0.010;2024-01-07T14:32:30;5.50;99.90
41310;DHT22;27057;51.438;-0.010;2024-01-07T14:34:57;5.60;99.90
41310;DHT22;27057;51.438;-0.010;2024-01-07T14:37:24;8.30;99.90
41310;DHT22;27057;51.438;-0.010;2024-01-07T14:39:55;5.50;99.90
41310;DHT22;27057;51.438;-0.010;2024-01-07T14:42:22;5.60;99.90
41310;DHT22;27057;51.438;-0.010;2024-01-07T14:44:50;6.70;99.90
41310;DHT22;27057;51.438;-0.010;2024-01-07T14:47:18;5.70;99.90
41310;DHT22;27057;51.438;-0.010;2024-01-07T14:49:45;5.30;99.90
41310;DHT22;27057;51.438;-0.010;2024-01-07T14:52:13;5.60;99.90
41310;DHT22;27057;51.438;-0.010;2024-01-07T14:54:41;5.50;99.90
41310;DHT22;27057;51.438;-0.010;2024-01-07T14:57:08;5.40;99.90
41310;DHT22;27057;51.438;-0.010;2024-01-07T14:59:36;5.40;99.90
41310;DHT22;27057;51.438;-0.010;2024-01-07T15:02:04;5.30;99.90
41310;DHT22;27057;51.438;-0.010;2024-01-07T15:04:32;5.40;99.90
41310;DHT22;27057;51.438;-0.010;2024-01-07T15:07:00;5.30;99.90
41310;DHT22;27057;51.438;-0.010;2024-01-07T15:09:27;5.30;99.90
41310;DHT22;27057;51.438;-0.010;2024-01-07T15:11:55;5.20;99.90
41310;DHT22;27057;51.438;-0.010;2024-01-07T15:14:24;5.20;99.90
41310;DHT22;27057;51.438;-0.010;2024-01-07T15:16:51;5.50;99.90
41310;DHT22;27057;51.438;-0.010;2024-01-07T15:19:22;5.30;99.90
41310;DHT22;27057;51.438;-0.010;2024-01-07T15:21:51;5.30;99.90
41310;DHT22;27057;51.438;-0.010;2024-01-07T15:24:18;5.50;99.90
41310;DHT22;27057;51.438;-0.010;2024-01-07T15:26:46;5.20;99.90
41310;DHT22;27057;51.438;-0.010;2024-01-07T15:29:13;6.10;99.90
41310;DHT22;27057;51.438;-0.010;2024-01-07T15:31:41;5.30;99.90
41310;DHT22;27057;51.438;-0.010;2024-01-07T15:34:09;5.30;99.90
41310;DHT22;27057;51.438;-0.010;2024-01-07T15:36:36;5.20;99.90
41310;DHT22;27057;51.438;-0.010;2024-01-07T15:39:04;5.30;99.90
41310;DHT22;27057;51.438;-0.010;2024-01-07T15:41:32;5.20;99.90
41310;DHT22;27057;51.438;-0.010;2024-01-07T15:43:59;5.20;99.90
41310;DHT22;27057;51.438;-0.010;2024-01-07T15:48:55;5.10;99.90
41310;DHT22;27057;51.438;-0.010;2024-01-07T15:51:23;5.40;99.90
41310;DHT22;27057;51.438;-0.010;2024-01-07T15:53:50;5.00;99.90
41310;DHT22;27057;51.438;-0.010;2024-01-07T15:56:18;4.90;99.90
41310;DHT22;27057;51.438;-0.010;2024-01-07T15:58:47;6.20;99.90